Time;durP1;ratioP1;P1;durP2;ratioP2;P2;SDS_P1;SDS_P2;PMS_P1;PMS_P2;Temp;Humidity;BMP_temperature;BMP_pressure;BME280_temperature;BME280_humidity;BME280_pressure;Samples;Min_cycle;Max_cycle;Signal;HPM_P1;HPM_P2
2023/04/05 00:01:34;;;;;;;8.77;5.93;;;-1.10;96.10;;;;;;4978296;28;20313;-77
2023/04/05 00:04:01;;;;;;;9.37;6.50;;;-1.20;96.00;;;;;;4977926;28;20222;-76
2023/04/05 00:06:29;;;;;;;9.93;6.47;;;-1.20;96.00;;;;;;4977799;28;20226;-76
2023/04/05 00:08:58;;;;;;;9.80;6.27;;;-1.20;96.10;;;;;;4982493;28;20226;-76
2023/04/05 00:11:26;;;;;;;13.07;6.53;;;-1.20;96.40;;;;;;4976987;28;20229;-74
2023/04/05 00:13:52;;;;;;;8.23;5.70;;;-1.30;96.40;;;;;;4980061;28;20664;-76
2023/04/05 00:16:20;;;;;;;9.53;6.43;;;-1.30;96.60;;;;;;4981955;28;20224;-75
2023/04/05 00:18:50;;;;;;;9.63;6.17;;;-1.30;96.70;;;;;;4981898;28;20237;-77
2023/04/05 00:21:20;;;;;;;7.73;5.50;;;-1.30;97.00;;;;;;4978493;28;20892;-76
2023/04/05 00:23:47;;;;;;;8.30;5.63;;;-1.30;97.30;;;;;;4979079;28;20836;-75
2023/04/05 00:26:15;;;;;;;8.37;5.77;;;-1.30;97.30;;;;;;4974966;28;20888;-76
2023/04/05 00:28:47;;;;;;;11.17;5.80;;;-1.40;97.50;;;;;;4977692;28;20226;-77
2023/04/05 00:31:14;;;;;;;7.97;5.90;;;-1.40;97.60;;;;;;4974454;28;20237;-74
2023/04/05 00:33:41;;;;;;;8.13;5.43;;;-1.40;97.60;;;;;;4996100;28;20313;-76
2023/04/05 00:36:11;;;;;;;10.30;5.63;;;-1.50;97.60;;;;;;4976281;28;20391;-76
2023/04/05 00:38:40;;;;;;;7.43;4.97;;;-1.50;98.10;;;;;;4978053;28;20329;-76
2023/04/05 00:41:07;;;;;;;7.47;4.70;;;-1.50;97.90;;;;;;4980725;28;20249;-75
2023/04/05 00:43:35;;;;;;;8.67;4.90;;;-1.50;98.00;;;;;;4977646;28;20240;-77
2023/04/05 00:46:03;;;;;;;7.60;4.27;;;-1.60;98.30;;;;;;4975299;28;20230;-75
2023/04/05 00:48:32;;;;;;;8.47;4.30;;;-1.60;98.30;;;;;;4978367;28;20228;-76
2023/04/05 00:50:59;;;;;;;6.30;3.90;;;-1.60;98.30;;;;;;4975964;28;21740;-76
2023/04/05 00:53:27;;;;;;;6.80;3.73;;;-1.60;98.40;;;;;;4975375;28;20230;-75
2023/04/05 00:55:54;;;;;;;8.07;3.67;;;-1.70;98.50;;;;;;4976998;28;20219;-76
2023/04/05 00:58:22;;;;;;;7.00;3.77;;;-1.70;98.70;;;;;;4971646;28;20218;-75
2023/04/05 01:01:00;;;;;;;7.07;3.90;;;-1.70;99.00;;;;;;4975834;28;20328;-74
2023/04/05 01:03:30;;;;;;;5.33;3.67;;;-1.70;99.70;;;;;;4991440;28;20232;-76
2023/04/05 01:06:09;;;;;;;5.73;4.00;;;-1.70;99.40;;;;;;4974588;28;20246;-76
2023/04/05 01:08:45;;;;;;;8.60;4.10;;;-1.70;99.90;;;;;;4974937;28;20303;-76
2023/04/05 01:11:13;;;;;;;6.13;3.87;;;-1.80;99.90;;;;;;4994632;28;20288;-76
2023/04/05 01:13:40;;;;;;;6.77;4.13;;;-1.80;99.70;;;;;;4977606;28;20248;-76
2023/04/05 01:16:08;;;;;;;7.47;3.80;;;-1.80;99.60;;;;;;4980333;28;20404;-76
2023/04/05 01:18:36;;;;;;;7.73;3.60;;;-1.80;99.60;;;;;;4979568;28;20283;-75
2023/04/05 01:21:19;;;;;;;5.93;3.40;;;-1.80;99.40;;;;;;4997020;28;20237;-76
2023/04/05 01:23:59;;;;;;;6.07;3.57;;;-1.90;99.70;;;;;;4978207;28;20324;-76
2023/04/05 01:27:06;;;;;;;6.57;3.20;;;-1.90;99.70;;;;;;4976701;28;21005;-74
2023/04/05 01:29:59;;;;;;;5.67;3.10;;;-1.90;99.90;;;;;;4972541;28;20245;-75
2023/04/05 01:32:39;;;;;;;5.03;3.07;;;-1.90;99.90;;;;;;4977000;28;20241;-76
2023/04/05 01:35:12;;;;;;;4.17;2.90;;;-1.90;99.50;;;;;;4978419;28;20609;-77
2023/04/05 01:37:39;;;;;;;5.83;3.53;;;-2.00;99.60;;;;;;4976229;28;20233;-75
2023/04/05 01:40:08;;;;;;;7.07;3.30;;;-2.00;99.70;;;;;;4973591;28;20235;-74
2023/04/05 01:42:36;;;;;;;6.23;3.33;;;-2.00;99.90;;;;;;4976049;28;20336;-76
2023/04/05 01:45:05;;;;;;;7.50;3.40;;;-2.00;99.90;;;;;;4976617;28;20250;-75
2023/04/05 01:47:32;;;;;;;5.80;3.17;;;-2.10;99.90;;;;;;4977428;28;20252;-77
2023/04/05 01:49:58;;;;;;;7.87;3.20;;;-2.10;99.90;;;;;;4985480;28;20228;-76
2023/04/05 01:52:26;;;;;;;10.03;3.47;;;-2.10;99.90;;;;;;4977267;28;20237;-76
2023/04/05 01:54:53;;;;;;;7.50;3.50;;;-2.10;99.90;;;;;;4996283;28;20230;-77
2023/04/05 01:57:19;;;;;;;6.27;3.37;;;-2.10;99.90;;;;;;4974062;28;20224;-75
2023/04/05 01:59:46;;;;;;;5.47;3.60;;;-2.10;99.90;;;;;;4975072;28;20796;-76
2023/04/05 02:02:14;;;;;;;5.43;3.67;;;-2.10;99.90;;;;;;4973609;28;21953;-76
2023/04/05 02:04:42;;;;;;;5.57;3.70;;;-2.10;99.90;;;;;;4976582;28;20215;-76
2023/04/05 02:07:09;;;;;;;5.77;3.80;;;-2.10;99.90;;;;;;4975789;28;20703;-75
2023/04/05 02:09:36;;;;;;;6.70;4.10;;;-2.10;99.90;;;;;;4981485;28;20879;-76
2023/04/05 02:12:03;;;;;;;6.90;3.97;;;-2.10;99.90;;;;;;4976875;28;20697;-76
2023/04/05 02:14:31;;;;;;;8.73;3.60;;;-2.20;99.90;;;;;;4975083;28;20222;-76
2023/04/05 02:17:01;;;;;;;8.10;4.03;;;-2.10;99.90;;;;;;4993048;28;20320;-75
2023/04/05 02:19:39;;;;;;;6.40;3.50;;;-2.20;99.90;;;;;;4975742;28;20315;-76
2023/04/05 02:22:07;;;;;;;5.17;3.47;;;-2.20;99.90;;;;;;4978830;28;20235;-77
2023/04/05 02:24:34;;;;;;;6.43;3.53;;;-2.20;99.90;;;;;;4992220;28;20308;-76
2023/04/05 02:27:00;;;;;;;5.57;3.00;;;-2.20;99.90;;;;;;4974326;28;20325;-76
2023/04/05 02:29:27;;;;;;;4.77;2.87;;;-2.30;99.90;;;;;;4977654;28;21274;-76
2023/04/05 02:31:54;;;;;;;5.10;3.40;;;-2.30;99.90;;;;;;4978021;28;20253;-76
2023/04/05 02:34:22;;;;;;;7.00;3.70;;;-2.30;99.90;;;;;;4971537;28;20226;-76
2023/04/05 02:36:50;;;;;;;4.80;3.63;;;-2.40;99.90;;;;;;4978474;28;20237;-75
2023/04/05 02:39:18;;;;;;;5.63;3.50;;;-2.40;99.90;;;;;;4973220;28;20734;-76
2023/04/05 02:41:45;;;;;;;6.07;3.23;;;-2.40;99.90;;;;;;4980748;28;20766;-76
2023/04/05 02:44:13;;;;;;;7.13;3.73;;;-2.40;99.90;;;;;;4975199;28;20218;-77
2023/04/05 02:46:39;;;;;;;6.00;3.40;;;-2.40;99.90;;;;;;4978341;28;20238;-74
2023/04/05 02:49:06;;;;;;;6.73;3.43;;;-2.40;99.90;;;;;;4981585;28;20221;-76
2023/04/05 02:51:35;;;;;;;6.57;2.90;;;-2.40;99.90;;;;;;4981184;28;20230;-75
2023/04/05 02:54:07;;;;;;;5.87;3.40;;;-2.40;99.90;;;;;;4980567;28;20224;-76
2023/04/05 02:56:36;;;;;;;4.87;3.50;;;-2.40;99.90;;;;;;4981394;28;20227;-76
2023/04/05 02:59:07;;;;;;;4.80;3.33;;;-2.50;99.90;;;;;;4993319;28;20337;-76
2023/04/05 03:01:35;;;;;;;5.70;3.43;;;-2.40;99.90;;;;;;4980983;28;20783;-77
2023/04/05 03:04:02;;;;;;;5.80;3.50;;;-2.50;99.90;;;;;;4977055;28;20237;-75
2023/04/05 03:06:31;;;;;;;6.87;3.60;;;-2.60;99.90;;;;;;4987934;28;20231;-74
2023/04/05 03:09:00;;;;;;;5.63;3.40;;;-2.60;99.90;;;;;;4977011;28;20801;-75
2023/04/05 03:11:29;;;;;;;5.13;3.17;;;-2.60;99.90;;;;;;4974704;28;20252;-75
2023/04/05 03:13:58;;;;;;;5.97;3.53;;;-2.70;99.90;;;;;;4977410;28;20221;-75
2023/04/05 03:16:34;;;;;;;7.37;3.10;;;-2.70;99.90;;;;;;4988333;28;20263;-74
2023/04/05 03:19:08;;;;;;;5.87;3.50;;;-2.70;99.90;;;;;;4974582;28;20236;-75
2023/04/05 03:21:39;;;;;;;4.70;2.90;;;-2.70;99.90;;;;;;4981035;28;20233;-76
2023/04/05 03:24:17;;;;;;;7.67;3.60;;;-2.80;99.90;;;;;;4991775;28;20240;-75
2023/04/05 03:26:46;;;;;;;6.17;3.23;;;-2.80;99.90;;;;;;4997655;28;20218;-75
2023/04/05 03:29:14;;;;;;;6.37;3.33;;;-2.80;99.90;;;;;;4977958;28;20227;-76
2023/04/05 03:31:41;;;;;;;7.03;3.57;;;-2.80;99.90;;;;;;4978305;28;20726;-75
2023/04/05 03:34:09;;;;;;;6.50;3.80;;;-2.90;99.90;;;;;;4977889;28;20315;-76
2023/04/05 03:36:44;;;;;;;6.77;3.23;;;-2.90;99.90;;;;;;4973650;28;20230;-74
2023/04/05 03:39:25;;;;;;;6.47;3.47;;;-2.90;99.90;;;;;;4977169;28;20235;-77
2023/04/05 03:41:55;;;;;;;7.80;3.73;;;-2.90;99.90;;;;;;4977506;28;20226;-76
2023/04/05 03:44:22;;;;;;;6.13;3.47;;;-2.90;99.90;;;;;;4977267;28;20882;-76
2023/04/05 03:46:49;;;;;;;8.00;3.70;;;-2.90;99.90;;;;;;4997533;28;20471;-76
2023/04/05 03:49:16;;;;;;;5.70;4.20;;;-3.00;99.90;;;;;;4992513;28;21302;-75
2023/04/05 03:51:42;;;;;;;6.10;3.73;;;-3.00;99.90;;;;;;4979622;28;20237;-73
2023/04/05 03:54:10;;;;;;;6.20;3.50;;;-3.00;99.90;;;;;;4984834;28;20224;-75
2023/04/05 03:56:37;;;;;;;9.23;4.30;;;-3.00;99.90;;;;;;4977308;28;20225;-75
2023/04/05 03:59:17;;;;;;;7.63;4.03;;;-3.10;99.90;;;;;;4973283;28;20232;-76
2023/04/05 04:01:44;;;;;;;8.53;4.30;;;-3.10;99.90;;;;;;4974008;28;20296;-75
2023/04/05 04:04:12;;;;;;;7.83;4.23;;;-3.10;99.90;;;;;;4979704;28;20239;-77
2023/04/05 04:06:41;;;;;;;8.03;4.73;;;-3.10;99.90;;;;;;4981285;28;20912;-75
2023/04/05 04:09:08;;;;;;;7.20;4.30;;;-3.10;99.90;;;;;;4976618;28;21099;-75
2023/04/05 04:11:35;;;;;;;7.07;3.63;;;-3.20;99.90;;;;;;4976751;28;20320;-75
2023/04/05 04:14:05;;;;;;;5.80;2.90;;;-3.20;99.90;;;;;;4975071;28;20218;-76
2023/04/05 04:16:38;;;;;;;4.80;3.00;;;-3.10;99.90;;;;;;4995605;28;20931;-74
2023/04/05 04:19:17;;;;;;;6.27;3.23;;;-3.20;99.90;;;;;;4977768;28;20240;-75
2023/04/05 04:22:04;;;;;;;5.43;3.00;;;-3.20;99.90;;;;;;4979586;28;20955;-76
2023/04/05 04:25:02;;;;;;;5.90;3.07;;;-3.20;99.90;;;;;;4982146;28;20225;-76
2023/04/05 04:27:53;;;;;;;7.47;2.97;;;-3.20;99.90;;;;;;4976452;28;20214;-76
2023/04/05 04:30:52;;;;;;;7.00;3.53;;;-3.20;99.90;;;;;;4952080;28;20555;-75
2023/04/05 04:33:42;;;;;;;36.67;5.50;;;-3.20;99.90;;;;;;4959736;28;20300;-75
2023/04/05 04:36:38;;;;;;;5.00;3.23;;;-3.20;99.90;;;;;;4973671;28;20234;-75
2023/04/05 04:39:38;;;;;;;8.17;3.57;;;-3.20;99.90;;;;;;4978678;28;20267;-79
2023/04/05 04:42:18;;;;;;;12.27;3.93;;;-3.20;99.90;;;;;;4985185;28;20221;-80
2023/04/05 04:45:20;;;;;;;6.73;3.30;;;-3.20;99.90;;;;;;4971913;28;20300;-79
2023/04/05 04:48:07;;;;;;;5.73;3.17;;;-3.20;99.90;;;;;;4963819;28;20665;-79
2023/04/05 04:50:53;;;;;;;7.57;3.47;;;-3.20;99.90;;;;;;4959563;28;20247;-78
2023/04/05 04:53:20;;;;;;;6.20;3.47;;;-3.20;99.90;;;;;;4964406;28;20218;-77
2023/04/05 04:55:49;;;;;;;5.80;3.50;;;-3.20;99.90;;;;;;4954896;28;20232;-76
2023/04/05 04:58:17;;;;;;;4.97;3.20;;;-3.20;99.90;;;;;;4958628;28;20231;-76
2023/04/05 05:00:51;;;;;;;4.90;3.20;;;-3.20;99.90;;;;;;4972936;28;20232;-76
2023/04/05 05:03:18;;;;;;;6.73;3.77;;;-3.10;99.90;;;;;;4960969;28;20231;-76
2023/04/05 05:05:46;;;;;;;6.33;3.43;;;-3.10;99.90;;;;;;4959215;28;20239;-77
2023/04/05 05:08:18;;;;;;;6.70;3.97;;;-3.10;99.90;;;;;;4958645;28;20338;-76
2023/04/05 05:10:45;;;;;;;7.70;3.90;;;-3.00;99.90;;;;;;4961438;28;20960;-77
2023/04/05 05:13:12;;;;;;;5.03;3.40;;;-3.00;99.90;;;;;;4959715;28;20288;-77
2023/04/05 05:15:40;;;;;;;5.43;3.87;;;-2.90;99.90;;;;;;4962470;28;20218;-76
2023/04/05 05:18:07;;;;;;;8.83;5.13;;;-2.80;99.90;;;;;;4961364;28;20256;-77
2023/04/05 05:20:35;;;;;;;7.90;5.33;;;-2.80;99.90;;;;;;4961271;28;20293;-76
2023/04/05 05:23:04;;;;;;;10.00;5.60;;;-2.70;99.90;;;;;;4959077;28;20748;-75
2023/04/05 05:25:32;;;;;;;7.33;4.00;;;-2.60;99.90;;;;;;4957481;28;22084;-75
2023/04/05 05:27:59;;;;;;;7.67;4.47;;;-2.50;99.90;;;;;;4957343;28;20230;-74
2023/04/05 05:30:28;;;;;;;7.10;4.17;;;-2.40;99.90;;;;;;4956878;28;20230;-75
2023/04/05 05:32:56;;;;;;;9.13;6.00;;;-2.30;99.90;;;;;;4958606;28;20326;-76
2023/04/05 05:35:22;;;;;;;8.23;6.10;;;-2.20;99.90;;;;;;4953075;28;20230;-77
2023/04/05 05:37:51;;;;;;;12.63;6.33;;;-2.10;99.90;;;;;;4954945;28;20746;-74
2023/04/05 05:40:18;;;;;;;7.63;5.73;;;-2.00;99.90;;;;;;4958415;28;20610;-75
2023/04/05 05:42:46;;;;;;;7.60;5.30;;;-1.90;99.90;;;;;;4956720;28;20226;-76
2023/04/05 05:45:12;;;;;;;8.93;5.20;;;-1.70;99.90;;;;;;4954124;28;20227;-76
2023/04/05 05:47:40;;;;;;;7.73;3.80;;;-1.50;99.90;;;;;;4958842;28;20237;-76
2023/04/05 05:50:08;;;;;;;7.43;4.27;;;-1.30;99.90;;;;;;4956211;28;20232;-75
2023/04/05 05:52:35;;;;;;;7.33;4.00;;;-1.20;99.90;;;;;;4962714;28;20855;-75
2023/04/05 05:55:03;;;;;;;6.80;4.27;;;-1.10;99.90;;;;;;4955088;28;20223;-75
2023/04/05 05:57:30;;;;;;;7.03;4.30;;;-1.00;99.90;;;;;;4958868;28;20227;-75
2023/04/05 05:59:58;;;;;;;6.73;4.10;;;-0.90;99.90;;;;;;4954631;28;20292;-75
2023/04/05 06:02:26;;;;;;;10.70;4.10;;;-0.90;99.90;;;;;;4945060;28;20233;-74
2023/04/05 06:04:53;;;;;;;8.77;3.93;;;-0.80;99.90;;;;;;4961025;28;20238;-76
2023/04/05 06:07:20;;;;;;;6.37;4.83;;;-0.70;99.90;;;;;;4960450;28;20225;-76
2023/04/05 06:09:47;;;;;;;8.17;5.10;;;-0.60;99.90;;;;;;4966501;28;20500;-75
2023/04/05 06:12:14;;;;;;;9.57;4.93;;;-0.60;99.90;;;;;;4962457;28;20593;-76
2023/04/05 06:14:40;;;;;;;9.90;4.70;;;-0.50;99.90;;;;;;4961956;28;20786;-76
2023/04/05 06:17:09;;;;;;;7.63;4.50;;;-0.50;99.90;;;;;;4958934;28;20225;-77
2023/04/05 06:19:36;;;;;;;9.00;4.70;;;-0.40;99.90;;;;;;4979184;28;20243;-77
2023/04/05 06:22:02;;;;;;;8.20;5.10;;;-0.30;99.90;;;;;;4968347;28;20277;-77
2023/04/05 06:24:30;;;;;;;8.37;4.80;;;-0.20;99.90;;;;;;4972407;28;20231;-77
2023/04/05 06:26:57;;;;;;;10.27;4.80;;;-0.10;99.90;;;;;;4966409;28;20295;-77
2023/04/05 06:29:24;;;;;;;7.57;5.00;;;0.00;99.90;;;;;;4972746;28;20237;-77
2023/04/05 06:31:51;;;;;;;6.27;4.50;;;0.20;99.90;;;;;;4965515;28;20289;-77
2023/04/05 06:34:19;;;;;;;8.87;4.90;;;0.30;99.90;;;;;;4970319;28;20316;-77
2023/04/05 06:36:46;;;;;;;8.93;4.70;;;0.40;99.90;;;;;;4966028;28;20244;-77
2023/04/05 06:39:13;;;;;;;12.07;5.40;;;0.50;99.90;;;;;;4968839;28;20227;-77
2023/04/05 06:41:40;;;;;;;10.23;5.13;;;0.60;99.90;;;;;;4968206;28;20325;-77
2023/04/05 06:44:06;;;;;;;8.90;5.07;;;0.70;99.90;;;;;;4967257;28;20252;-77
2023/04/05 06:46:33;;;;;;;8.30;4.90;;;0.80;99.90;;;;;;4970714;28;21033;-77
2023/04/05 06:49:00;;;;;;;8.67;5.00;;;0.90;99.90;;;;;;4971613;28;20629;-77
2023/04/05 06:51:28;;;;;;;8.60;4.80;;;1.00;99.90;;;;;;4973789;28;20949;-78
2023/04/05 06:53:55;;;;;;;7.73;4.77;;;1.00;99.90;;;;;;4973416;28;20233;-77
2023/04/05 06:56:22;;;;;;;12.70;5.40;;;1.10;99.90;;;;;;4966132;28;20464;-77
2023/04/05 06:58:49;;;;;;;10.07;5.30;;;1.20;99.90;;;;;;4969100;28;20234;-77
2023/04/05 07:01:17;;;;;;;8.50;5.10;;;1.20;99.90;;;;;;4965726;28;20227;-77
2023/04/05 07:03:44;;;;;;;11.97;5.33;;;1.20;99.90;;;;;;4971641;28;20231;-77
2023/04/05 07:06:11;;;;;;;9.20;4.90;;;1.30;99.90;;;;;;4968152;28;20278;-77
2023/04/05 07:08:39;;;;;;;8.57;5.37;;;1.40;99.90;;;;;;4971144;28;20590;-77
2023/04/05 07:11:06;;;;;;;6.97;4.60;;;1.50;99.90;;;;;;4966132;28;20223;-78
2023/04/05 07:13:33;;;;;;;10.10;4.70;;;1.60;99.90;;;;;;4972254;28;20593;-77
2023/04/05 07:16:00;;;;;;;12.27;6.70;;;1.80;99.90;;;;;;4968626;28;20230;-77
2023/04/05 07:18:27;;;;;;;10.50;5.80;;;1.90;99.90;;;;;;4967244;28;20232;-77
2023/04/05 07:21:00;;;;;;;9.77;5.47;;;2.00;99.90;;;;;;4970260;28;20238;-77
2023/04/05 07:23:27;;;;;;;10.67;5.13;;;2.10;99.90;;;;;;4967628;28;20224;-77
2023/04/05 07:25:59;;;;;;;10.73;6.03;;;2.10;99.90;;;;;;4969504;28;20228;-78
2023/04/05 07:28:26;;;;;;;11.63;5.03;;;2.20;99.90;;;;;;4970707;28;20231;-77
2023/04/05 07:30:52;;;;;;;9.63;6.07;;;2.20;99.90;;;;;;4968227;28;20319;-77
2023/04/05 07:33:19;;;;;;;12.97;5.57;;;2.30;99.90;;;;;;4966055;28;20781;-77
2023/04/05 07:35:51;;;;;;;8.03;5.10;;;2.30;99.90;;;;;;4969164;28;20235;-77
2023/04/05 07:38:18;;;;;;;12.80;5.30;;;2.40;99.90;;;;;;4967306;28;20590;-77
2023/04/05 07:40:45;;;;;;;10.73;6.13;;;2.40;99.90;;;;;;4963596;28;20235;-77
2023/04/05 07:43:13;;;;;;;11.77;5.73;;;2.40;99.90;;;;;;4965813;28;20231;-79
2023/04/05 07:45:43;;;;;;;10.97;5.60;;;2.40;99.90;;;;;;4968652;28;20609;-77
2023/04/05 07:48:10;;;;;;;11.00;5.70;;;2.50;99.90;;;;;;4966132;28;20394;-77
2023/04/05 07:50:39;;;;;;;11.60;5.70;;;2.60;99.90;;;;;;4965524;23;20817;-79
2023/04/05 07:53:07;;;;;;;11.17;6.10;;;2.80;99.90;;;;;;4961067;28;20235;-80
2023/04/05 07:55:33;;;;;;;8.67;5.87;;;3.10;99.90;;;;;;4980681;23;20228;-82
2023/04/05 07:58:00;;;;;;;8.90;5.20;;;3.60;99.90;;;;;;4981326;28;20316;-77
2023/04/05 08:00:31;;;;;;;12.87;5.33;;;4.30;99.90;;;;;;4971649;28;20302;-79
2023/04/05 08:02:58;;;;;;;10.30;5.23;;;5.20;99.90;;;;;;4970648;28;20260;-82
2023/04/05 08:05:25;;;;;;;9.90;4.70;;;6.20;99.90;;;;;;4969659;28;20242;-79
2023/04/05 08:07:51;;;;;;;8.13;4.73;;;7.10;99.90;;;;;;4975378;23;20218;-78
2023/04/05 08:10:18;;;;;;;7.40;4.23;;;8.00;98.50;;;;;;4949398;28;20219;-79
2023/04/05 08:12:45;;;;;;;7.67;4.27;;;8.90;97.40;;;;;;4937442;28;20620;-80
2023/04/05 08:15:12;;;;;;;6.93;4.30;;;9.70;96.70;;;;;;4939033;28;20240;-80
2023/04/05 08:17:40;;;;;;;11.37;4.83;;;10.50;95.10;;;;;;4938376;28;20242;-79
2023/04/05 08:20:08;;;;;;;8.93;4.57;;;11.30;93.20;;;;;;4933955;28;20239;-79
2023/04/05 08:22:34;;;;;;;8.93;4.27;;;12.00;92.20;;;;;;4946044;28;20772;-80
2023/04/05 08:25:01;;;;;;;7.23;4.50;;;12.70;91.10;;;;;;4945615;28;20238;-79
2023/04/05 08:27:28;;;;;;;6.80;3.97;;;13.30;90.20;;;;;;4948727;28;20319;-80
2023/04/05 08:29:55;;;;;;;8.90;5.03;;;13.80;88.30;;;;;;4945663;28;20336;-80
2023/04/05 08:32:21;;;;;;;6.07;4.07;;;14.40;85.90;;;;;;4944463;28;20691;-80
2023/04/05 08:34:49;;;;;;;6.27;3.97;;;14.90;83.00;;;;;;4952079;28;20772;-80
2023/04/05 08:37:16;;;;;;;8.27;4.60;;;15.30;80.20;;;;;;4947244;28;20226;-80
2023/04/05 08:39:43;;;;;;;8.33;4.40;;;15.80;78.70;;;;;;4949675;28;20242;-79
2023/04/05 08:42:17;;;;;;;10.43;4.87;;;16.20;76.10;;;;;;4944209;28;20239;-79
2023/04/05 08:44:45;;;;;;;6.70;4.37;;;16.60;73.50;;;;;;4950553;28;20298;-80
2023/04/05 08:47:17;;;;;;;8.87;4.37;;;16.90;72.00;;;;;;4962057;28;20236;-79
2023/04/05 08:49:44;;;;;;;7.28;4.70;;;17.30;71.20;;;;;;4965497;28;20224;-80
2023/04/05 08:52:12;;;;;;;7.20;4.30;;;17.70;70.90;;;;;;4941275;28;20304;-79
2023/04/05 08:54:39;;;;;;;7.33;4.37;;;18.00;68.20;;;;;;4938401;28;20228;-80
2023/04/05 08:57:07;;;;;;;10.05;4.10;;;18.40;67.90;;;;;;4947461;28;20258;-80
2023/04/05 08:59:37;;;;;;;5.38;3.75;;;18.50;65.40;;;;;;4950723;28;20318;-80
2023/04/05 09:02:12;;;;;;;6.55;3.97;;;18.80;63.40;;;;;;4949211;28;20230;-80
2023/04/05 09:04:43;;;;;;;5.03;4.03;;;19.00;62.60;;;;;;4938779;28;20359;-80
2023/04/05 09:07:13;;;;;;;4.78;3.42;;;19.20;61.50;;;;;;4941351;28;20219;-79
2023/04/05 09:09:46;;;;;;;6.35;3.70;;;19.40;60.50;;;;;;4950375;28;20641;-80
2023/04/05 09:12:14;;;;;;;6.13;4.10;;;19.50;57.30;;;;;;4941753;28;20232;-79
2023/04/05 09:14:45;;;;;;;6.40;4.00;;;19.60;57.70;;;;;;4959903;28;20307;-80
2023/04/05 09:17:12;;;;;;;6.72;4.10;;;19.60;57.00;;;;;;4952239;28;20255;-80
2023/04/05 09:19:39;;;;;;;6.68;4.18;;;19.70;55.60;;;;;;4950831;28;20227;-80
2023/04/05 09:22:08;;;;;;;6.07;4.00;;;19.70;57.00;;;;;;4946530;28;20231;-79
2023/04/05 09:24:42;;;;;;;5.45;3.08;;;19.80;55.80;;;;;;4939534;28;20417;-79
2023/04/05 09:27:10;;;;;;;3.95;2.97;;;20.00;54.80;;;;;;4947197;28;20231;-80
2023/04/05 09:29:39;;;;;;;3.85;2.80;;;20.10;53.80;;;;;;4936240;28;20319;-79
2023/04/05 09:32:07;;;;;;;5.25;3.40;;;20.10;53.60;;;;;;4942622;28;20714;-80
2023/04/05 09:34:36;;;;;;;4.97;2.95;;;20.20;53.00;;;;;;4947877;28;20258;-80
2023/04/05 09:37:12;;;;;;;3.63;2.88;;;20.20;52.50;;;;;;4944334;28;20231;-80
2023/04/05 09:39:40;;;;;;;4.68;2.90;;;20.20;52.60;;;;;;4951043;28;20602;-80
2023/04/05 09:42:10;;;;;;;3.97;2.67;;;20.30;51.50;;;;;;4946473;28;20690;-80
2023/04/05 09:45:01;;;;;;;3.80;2.83;;;20.50;51.60;;;;;;4951141;28;20698;-80
2023/04/05 09:47:31;;;;;;;4.35;2.65;;;20.70;50.10;;;;;;4950672;28;20230;-80
2023/04/05 09:50:00;;;;;;;4.20;3.00;;;20.80;50.30;;;;;;4950670;28;20274;-80
2023/04/05 09:52:30;;;;;;;9.50;8.02;;;20.80;50.10;;;;;;4948638;28;20311;-80
2023/04/05 09:55:00;;;;;;;4.65;3.38;;;20.80;48.40;;;;;;4939275;28;20235;-80
2023/04/05 09:57:37;;;;;;;4.97;3.00;;;20.80;47.90;;;;;;4948512;28;20227;-80
2023/04/05 10:00:05;;;;;;;7.53;5.97;;;20.60;46.60;;;;;;4942116;28;20272;-80
2023/04/05 10:02:41;;;;;;;4.85;3.17;;;20.30;47.30;;;;;;4945705;28;20294;-80
2023/04/05 10:05:11;;;;;;;3.35;2.63;;;20.00;47.70;;;;;;4947552;28;20795;-80
2023/04/05 10:07:38;;;;;;;5.30;4.13;;;19.80;47.80;;;;;;4949152;28;20235;-80
2023/04/05 10:10:08;;;;;;;3.75;3.15;;;19.70;48.50;;;;;;4941912;28;20223;-80
2023/04/05 10:12:38;;;;;;;4.15;2.60;;;19.60;46.60;;;;;;4950512;28;20250;-80
2023/04/05 10:15:06;;;;;;;4.50;2.83;;;19.40;46.70;;;;;;4948906;28;20653;-80
2023/04/05 10:17:48;;;;;;;5.97;3.10;;;19.20;46.90;;;;;;4931360;28;20242;-80
2023/04/05 10:20:16;;;;;;;4.20;3.17;;;18.90;45.80;;;;;;4947520;28;20234;-80
2023/04/05 10:22:56;;;;;;;4.10;2.53;;;18.40;45.80;;;;;;4948445;28;20767;-80
2023/04/05 10:25:30;;;;;;;4.23;2.80;;;18.00;46.30;;;;;;4940192;28;20587;-80
2023/04/05 10:28:03;;;;;;;3.63;2.90;;;17.70;47.80;;;;;;4951062;28;20244;-80
2023/04/05 10:30:36;;;;;;;3.65;2.55;;;17.60;47.80;;;;;;4950541;28;20567;-80
2023/04/05 10:33:20;;;;;;;5.55;3.05;;;17.70;48.20;;;;;;4944932;28;20823;-80
2023/04/05 10:35:57;;;;;;;4.35;3.00;;;18.00;48.30;;;;;;4958539;28;20246;-80
2023/04/05 10:38:25;;;;;;;4.93;3.40;;;18.10;47.90;;;;;;4948845;28;20345;-80
2023/04/05 10:41:10;;;;;;;4.80;3.00;;;18.20;47.40;;;;;;4941202;28;20316;-80
2023/04/05 10:43:39;;;;;;;4.18;2.85;;;18.10;46.90;;;;;;4948918;28;20231;-80
2023/04/05 10:46:06;;;;;;;4.00;3.00;;;18.00;46.90;;;;;;4950471;28;20227;-80
2023/04/05 10:48:44;;;;;;;4.63;2.83;;;17.80;46.60;;;;;;4945876;28;20243;-80
2023/04/05 10:51:15;;;;;;;4.47;2.90;;;17.40;45.80;;;;;;4949362;28;20569;-82
2023/04/05 10:53:43;;;;;;;3.83;2.80;;;17.00;45.10;;;;;;4949896;28;20235;-80
2023/04/05 10:56:12;;;;;;;4.00;2.63;;;16.60;47.20;;;;;;4946721;28;20241;-79
2023/04/05 10:58:41;;;;;;;7.07;2.90;;;16.10;47.40;;;;;;4946297;28;20756;-80
2023/04/05 11:01:09;;;;;;;6.23;3.07;;;15.80;47.40;;;;;;4944561;28;20314;-81
2023/04/05 11:03:46;;;;;;;5.20;3.37;;;15.40;48.40;;;;;;4954118;28;20866;-81
2023/04/05 11:06:23;;;;;;;5.80;3.07;;;15.20;49.00;;;;;;4948529;28;20233;-82
2023/04/05 11:08:53;;;;;;;4.43;3.00;;;15.00;49.30;;;;;;4949028;28;20266;-80
2023/04/05 11:11:26;;;;;;;3.97;3.20;;;14.80;49.40;;;;;;4946830;28;20230;-80
2023/04/05 11:13:54;;;;;;;6.57;3.57;;;14.50;49.50;;;;;;4952733;28;20225;-82
2023/04/05 11:16:24;;;;;;;5.10;3.50;;;14.20;50.20;;;;;;4946436;28;20600;-81
2023/04/05 11:18:52;;;;;;;5.87;3.43;;;14.00;50.60;;;;;;4950164;28;20323;-82
2023/04/05 11:21:23;;;;;;;6.37;3.60;;;13.80;50.90;;;;;;4948345;28;20257;-82
2023/04/05 11:24:06;;;;;;;6.00;3.70;;;13.60;51.00;;;;;;4951340;28;20250;-82
2023/04/05 11:26:53;;;;;;;5.00;3.13;;;13.50;51.30;;;;;;4962667;28;20221;-82
2023/04/05 11:29:47;;;;;;;3.80;3.27;;;13.30;51.50;;;;;;4946748;28;20233;-82
2023/04/05 11:32:14;;;;;;;5.20;3.40;;;13.20;52.00;;;;;;4939088;28;20238;-81
2023/04/05 11:34:42;;;;;;;4.63;3.10;;;13.20;52.10;;;;;;4950510;28;20272;-82
2023/04/05 11:37:12;;;;;;;4.60;3.00;;;13.20;52.40;;;;;;4937294;28;20259;-80
2023/04/05 11:39:41;;;;;;;4.90;3.20;;;13.20;52.40;;;;;;4958052;28;20235;-82
2023/04/05 11:42:12;;;;;;;5.63;3.00;;;13.20;52.50;;;;;;4944554;28;20316;-81
2023/04/05 11:44:51;;;;;;;5.50;3.70;;;13.20;52.40;;;;;;4950004;28;20224;-82
2023/04/05 11:47:20;;;;;;;15.53;10.53;;;13.20;52.70;;;;;;4937749;28;20251;-81
2023/04/05 11:49:53;;;;;;;5.97;3.80;;;13.20;52.20;;;;;;4942346;28;20781;-82
2023/04/05 11:52:23;;;;;;;4.33;3.30;;;13.20;52.90;;;;;;4950724;28;20272;-82
2023/04/05 11:54:52;;;;;;;5.73;3.20;;;13.40;53.30;;;;;;4953859;28;20230;-82
2023/04/05 11:57:21;;;;;;;6.23;3.10;;;13.60;54.10;;;;;;4954192;28;20803;-82
2023/04/05 11:59:52;;;;;;;4.23;3.13;;;13.90;53.50;;;;;;4950243;28;20734;-82
2023/04/05 12:02:19;;;;;;;6.80;4.43;;;14.50;53.50;;;;;;4951439;28;20231;-82
2023/04/05 12:04:57;;;;;;;5.07;2.93;;;14.90;53.00;;;;;;4951284;28;20227;-82
2023/04/05 12:07:27;;;;;;;4.47;3.00;;;15.30;52.00;;;;;;4945642;28;20251;-82
2023/04/05 12:10:07;;;;;;;6.27;3.63;;;15.50;50.00;;;;;;4936558;28;20247;-81
2023/04/05 12:12:37;;;;;;;4.83;3.03;;;15.70;50.70;;;;;;4949419;28;20310;-79
2023/04/05 12:15:07;;;;;;;5.17;2.97;;;15.80;49.90;;;;;;4949915;28;20244;-82
2023/04/05 12:17:38;;;;;;;5.40;2.83;;;15.90;50.20;;;;;;4950639;28;20350;-82
2023/04/05 12:20:07;;;;;;;4.73;3.00;;;15.80;49.60;;;;;;4957754;28;20247;-82
2023/04/05 12:22:34;;;;;;;5.07;2.73;;;15.70;49.00;;;;;;4940008;28;20230;-82
2023/04/05 12:25:04;;;;;;;5.27;3.03;;;15.60;49.60;;;;;;4947264;28;20231;-82
2023/04/05 12:27:33;;;;;;;4.53;2.40;;;15.40;49.70;;;;;;4950539;28;20714;-82
2023/04/05 12:30:16;;;;;;;3.40;2.33;;;15.20;49.70;;;;;;4960764;28;20237;-82
2023/04/05 12:32:45;;;;;;;4.77;2.47;;;15.10;49.20;;;;;;4946883;28;20221;-82
2023/04/05 12:35:15;;;;;;;4.60;2.47;;;15.00;49.60;;;;;;4948560;28;20238;-80
2023/04/05 12:37:42;;;;;;;4.20;2.40;;;14.90;50.20;;;;;;4951462;28;20235;-81
2023/04/05 12:40:10;;;;;;;3.60;2.50;;;14.70;49.90;;;;;;4956510;28;20322;-80
2023/04/05 12:42:39;;;;;;;4.00;2.37;;;14.60;49.70;;;;;;4950254;28;20448;-80
2023/04/05 12:45:09;;;;;;;2.73;2.40;;;14.50;49.90;;;;;;4951129;28;20229;-81
2023/04/05 12:47:51;;;;;;;6.73;2.77;;;14.40;50.00;;;;;;4973278;28;20238;-81
2023/04/05 12:50:25;;;;;;;4.80;2.87;;;14.30;50.10;;;;;;4955157;28;20433;-80
2023/04/05 12:52:53;;;;;;;4.83;2.53;;;14.30;50.50;;;;;;4953703;28;20237;-80
2023/04/05 12:55:22;;;;;;;2.80;2.37;;;14.30;51.10;;;;;;4942368;28;20237;-80
2023/04/05 12:57:58;;;;;;;3.67;2.60;;;14.50;51.10;;;;;;4940110;28;20804;-80
2023/04/05 13:00:26;;;;;;;5.83;2.80;;;14.60;50.30;;;;;;4951335;28;20225;-81
2023/04/05 13:02:56;;;;;;;4.60;2.97;;;14.80;50.30;;;;;;4944066;28;20228;-81
2023/04/05 13:05:25;;;;;;;3.53;2.80;;;14.80;49.90;;;;;;4950533;28;20305;-80